Time;durP1;ratioP1;P1;durP2;ratioP2;P2;SDS_P1;SDS_P2;PMS_P1;PMS_P2;Temp;Humidity;BMP_temperature;BMP_pressure;BME280_temperature;BME280_humidity;BME280_pressure;Samples;Min_cycle;Max_cycle;Signal;HPM_P1;HPM_P2
2023/06/30 00:01:14;;;;;;;;;;;;;;;15.38;46.88;100628.44;4996651;28;1143;-53
2023/06/30 00:03:39;;;;;;;;;;;;;;;15.47;46.49;100627.91;4997275;28;1132;-53
2023/06/30 00:06:04;;;;;;;;;;;;;;;15.37;47.00;100618.53;4996558;28;1152;-53
2023/06/30 00:08:32;;;;;;;;;;;;;;;15.33;46.75;100616.63;4996480;28;1032;-51
2023/06/30 00:10:58;;;;;;;;;;;;;;;15.38;46.46;100624.88;4998375;28;1103;-51
2023/06/30 00:13:23;;;;;;;;;;;;;;;16.33;48.26;100623.66;5000342;28;2020;-55
2023/06/30 00:15:49;;;;;;;;;;;;;;;15.85;48.74;100621.19;5000931;28;1140;-50
2023/06/30 00:18:15;;;;;;;;;;;;;;;15.64;48.59;100630.41;5000664;28;1057;-56
2023/06/30 00:20:40;;;;;;;;;;;;;;;15.65;47.87;100619.16;5000149;28;1123;-52
2023/06/30 00:23:08;;;;;;;;;;;;;;;15.53;47.61;100618.63;4999921;28;1148;-50
2023/06/30 00:25:34;;;;;;;;;;;;;;;15.49;47.57;100615.59;5000597;28;1149;-51
2023/06/30 00:27:59;;;;;;;;;;;;;;;15.54;47.25;100623.81;5000117;28;1105;-52
2023/06/30 00:30:25;;;;;;;;;;;;;;;15.48;47.27;100613.13;5031939;28;1415;-51
2023/06/30 00:32:50;;;;;;;;;;;;;;;15.90;47.76;100614.88;4999850;28;1902;-53
2023/06/30 00:35:17;;;;;;;;;;;;;;;16.08;48.71;100621.72;5032124;28;1235;-51
2023/06/30 00:37:43;;;;;;;;;;;;;;;15.76;48.63;100614.53;4998878;28;1290;-53
2023/06/30 00:40:09;;;;;;;;;;;;;;;15.70;48.11;100613.72;4999166;28;1312;-54
2023/06/30 00:42:35;;;;;;;;;;;;;;;15.62;47.85;100613.44;5000199;28;1013;-54
2023/06/30 00:45:01;;;;;;;;;;;;;;;15.56;47.44;100629.03;4999792;28;1135;-53
2023/06/30 00:47:26;;;;;;;;;;;;;;;15.55;47.31;100610.94;4998715;28;1132;-51
2023/06/30 00:49:52;;;;;;;;;;;;;;;15.73;47.51;100618.63;5000095;28;1263;-53
2023/06/30 00:52:17;;;;;;;;;;;;;;;16.01;48.72;100615.69;4987007;28;1057;-51
2023/06/30 00:54:43;;;;;;;;;;;;;;;15.77;48.41;100613.44;5000085;28;2000;-54
2023/06/30 00:57:08;;;;;;;;;;;;;;;15.72;47.92;100608.78;5030437;28;1048;-53
2023/06/30 00:59:34;;;;;;;;;;;;;;;15.55;48.12;100614.50;5031161;28;1839;-54
2023/06/30 01:02:04;;;;;;;;;;;;;;;15.63;47.73;100609.59;4999463;28;1144;-50
2023/06/30 01:04:48;;;;;;;;;;;;;;;15.54;47.57;100615.59;4999431;28;1092;-51
2023/06/30 01:07:17;;;;;;;;;;;;;;;15.51;47.30;100596.13;4999434;28;1148;-53
2023/06/30 01:09:45;;;;;;;;;;;;;;;15.53;46.88;100613.94;4999491;28;1053;-53
2023/06/30 01:12:10;;;;;;;;;;;;;;;16.53;48.43;100613.75;4999580;28;1004;-51
2023/06/30 01:14:36;;;;;;;;;;;;;;;15.91;48.91;100611.03;4998623;28;1910;-52
2023/06/30 01:17:01;;;;;;;;;;;;;;;15.78;48.54;100615.09;4998401;28;1275;-53
2023/06/30 01:19:30;;;;;;;;;;;;;;;15.77;48.13;100618.09;4998197;28;1136;-52
2023/06/30 01:21:56;;;;;;;;;;;;;;;15.72;47.87;100617.03;4981283;28;1470;-53
2023/06/30 01:24:22;;;;;;;;;;;;;;;15.64;47.57;100611.22;4997770;28;1092;-51
2023/06/30 01:26:49;;;;;;;;;;;;;;;15.60;47.41;100621.91;5014396;28;1123;-50
2023/06/30 01:29:15;;;;;;;;;;;;;;;15.60;47.21;100623.81;4998771;28;1087;-51
2023/06/30 01:31:43;;;;;;;;;;;;;;;15.50;47.11;100624.63;4998082;28;1116;-51
2023/06/30 01:34:08;;;;;;;;;;;;;;;15.46;46.99;100616.13;4998992;28;2017;-49
2023/06/30 01:36:34;;;;;;;;;;;;;;;15.63;46.51;100623.31;4997579;28;1057;-49
2023/06/30 01:38:59;;;;;;;;;;;;;;;15.53;46.67;100624.09;4998844;28;1037;-53
2023/06/30 01:41:25;;;;;;;;;;;;;;;15.50;46.77;100616.41;5030620;28;1437;-50
2023/06/30 01:43:51;;;;;;;;;;;;;;;15.44;46.51;100626.53;4998977;28;1097;-52
2023/06/30 01:46:16;;;;;;;;;;;;;;;15.40;46.48;100630.88;4981465;28;1611;-51
2023/06/30 01:48:43;;;;;;;;;;;;;;;15.43;46.43;100632.28;4998797;28;1260;-49
2023/06/30 01:51:09;;;;;;;;;;;;;;;15.45;46.25;100621.88;4997803;28;1104;-54
2023/06/30 01:53:34;;;;;;;;;;;;;;;15.35;46.65;100626.22;4998600;28;1977;-52
2023/06/30 01:56:00;;;;;;;;;;;;;;;15.35;46.57;100620.75;4998632;28;1164;-52
2023/06/30 01:58:25;;;;;;;;;;;;;;;15.43;46.38;100615.84;4998416;28;1107;-53
2023/06/30 02:00:51;;;;;;;;;;;;;;;15.38;46.29;100620.19;4997569;28;1368;-54
2023/06/30 02:03:16;;;;;;;;;;;;;;;15.35;46.22;100617.19;4998832;28;1129;-53
2023/06/30 02:05:42;;;;;;;;;;;;;;;15.31;46.50;100619.63;4998760;28;1013;-53
2023/06/30 02:08:07;;;;;;;;;;;;;;;15.33;46.52;100611.16;5029780;28;1138;-53
2023/06/30 02:10:33;;;;;;;;;;;;;;;16.33;47.54;100609.13;4998415;28;883;-52
2023/06/30 02:12:58;;;;;;;;;;;;;;;15.81;48.49;100616.50;4996662;28;2002;-53
2023/06/30 02:15:24;;;;;;;;;;;;;;;15.58;48.39;100624.09;5029540;28;1119;-53
2023/06/30 02:17:49;;;;;;;;;;;;;;;15.56;47.91;100623.56;5029798;28;1214;-51
2023/06/30 02:20:15;;;;;;;;;;;;;;;15.49;47.68;100623.00;5029406;28;1195;-53
2023/06/30 02:22:41;;;;;;;;;;;;;;;15.46;47.22;100626.25;4998300;28;1233;-53
2023/06/30 02:25:07;;;;;;;;;;;;;;;15.42;47.02;100636.09;4998395;28;1084;-54
2023/06/30 02:27:32;;;;;;;;;;;;;;;15.35;47.13;100625.41;4998164;28;1044;-53
2023/06/30 02:30:04;;;;;;;;;;;;;;;15.45;46.55;100624.63;4998044;28;1170;-54
2023/06/30 02:32:30;;;;;;;;;;;;;;;15.37;46.79;100629.50;4997825;28;1977;-53
2023/06/30 02:34:55;;;;;;;;;;;;;;;15.32;46.49;100632.25;4997361;28;1029;-52
2023/06/30 02:37:21;;;;;;;;;;;;;;;15.35;46.59;100637.19;4998275;28;1164;-52
2023/06/30 02:39:46;;;;;;;;;;;;;;;15.29;46.80;100637.44;4998034;28;1154;-52
2023/06/30 02:42:13;;;;;;;;;;;;;;;15.33;46.58;100631.16;4997546;28;1036;-53
2023/06/30 02:44:39;;;;;;;;;;;;;;;15.30;46.58;100637.16;4996800;28;1165;-53
2023/06/30 02:47:05;;;;;;;;;;;;;;;15.21;46.43;100636.03;5029149;28;1116;-55
2023/06/30 02:49:30;;;;;;;;;;;;;;;15.30;46.51;100639.09;4997537;28;1399;-53
2023/06/30 02:51:56;;;;;;;;;;;;;;;15.24;46.36;100635.50;5029156;28;1104;-52
2023/06/30 02:54:22;;;;;;;;;;;;;;;15.26;46.40;100635.22;4997452;28;1906;-52
2023/06/30 02:56:48;;;;;;;;;;;;;;;15.20;46.69;100639.88;5029053;28;1183;-52
2023/06/30 02:59:13;;;;;;;;;;;;;;;15.22;46.46;100633.03;5028615;28;1514;-54
2023/06/30 03:01:40;;;;;;;;;;;;;;;15.19;46.66;100627.25;5029169;28;1250;-54
2023/06/30 03:04:06;;;;;;;;;;;;;;;15.16;46.42;100636.81;5029219;28;1319;-53
2023/06/30 03:06:34;;;;;;;;;;;;;;;16.29;47.57;100644.50;4995997;28;1439;-52
2023/06/30 03:09:00;;;;;;;;;;;;;;;15.81;49.03;100643.91;5029111;28;1119;-51
2023/06/30 03:11:28;;;;;;;;;;;;;;;15.57;48.85;100647.09;5028844;28;1131;-51
2023/06/30 03:13:54;;;;;;;;;;;;;;;15.47;48.19;100655.31;5028697;28;1988;-50
2023/06/30 03:16:22;;;;;;;;;;;;;;;15.42;47.97;100641.56;4995274;28;1403;-56
2023/06/30 03:18:47;;;;;;;;;;;;;;;15.40;47.45;100645.44;5028939;28;1134;-56
2023/06/30 03:21:13;;;;;;;;;;;;;;;15.40;47.37;100645.44;4997231;28;1044;-56
2023/06/30 03:23:41;;;;;;;;;;;;;;;15.42;47.14;100647.06;4997137;28;958;-56
2023/06/30 03:26:07;;;;;;;;;;;;;;;15.32;47.03;100632.25;4997089;28;1076;-56
2023/06/30 03:28:32;;;;;;;;;;;;;;;15.47;47.07;100636.13;4997198;28;1072;-56
2023/06/30 03:30:59;;;;;;;;;;;;;;;16.20;48.50;100637.91;5029063;28;1132;-56
2023/06/30 03:33:25;;;;;;;;;;;;;;;15.80;48.76;100637.59;5028246;28;2219;-54
2023/06/30 03:35:51;;;;;;;;;;;;;;;15.65;48.38;100638.34;5027946;28;1198;-49
2023/06/30 03:38:16;;;;;;;;;;;;;;;15.60;47.92;100641.09;4997314;28;1103;-49
2023/06/30 03:40:42;;;;;;;;;;;;;;;15.60;47.35;100641.09;4996846;28;1084;-49
2023/06/30 03:43:08;;;;;;;;;;;;;;;15.52;47.29;100636.16;4996873;28;1216;-51
2023/06/30 03:45:33;;;;;;;;;;;;;;;15.36;47.46;100638.84;5028614;28;1211;-50
2023/06/30 03:47:59;;;;;;;;;;;;;;;15.46;47.22;100631.72;4996689;28;993;-49
2023/06/30 03:50:25;;;;;;;;;;;;;;;15.44;46.96;100655.84;4995731;28;1223;-51
2023/06/30 03:52:50;;;;;;;;;;;;;;;15.46;46.85;100659.13;4996779;28;2003;-47
2023/06/30 03:55:16;;;;;;;;;;;;;;;15.38;47.00;100647.59;5028308;28;1139;-56
2023/06/30 03:57:42;;;;;;;;;;;;;;;15.42;46.86;100649.81;4996152;28;1293;-56
2023/06/30 04:00:11;;;;;;;;;;;;;;;16.50;47.88;100648.06;4994432;28;1104;-57
2023/06/30 04:02:40;;;;;;;;;;;;;;;15.84;48.89;100641.44;4995885;28;1085;-55
2023/06/30 04:05:05;;;;;;;;;;;;;;;15.67;48.75;100649.06;4996837;28;1095;-57
2023/06/30 04:07:31;;;;;;;;;;;;;;;15.59;48.15;100650.41;4996492;28;1049;-57
2023/06/30 04:09:56;;;;;;;;;;;;;;;15.59;47.77;100653.16;4996206;28;1139;-57
2023/06/30 04:12:22;;;;;;;;;;;;;;;15.58;47.50;100651.50;4995222;28;1264;-55
2023/06/30 04:14:48;;;;;;;;;;;;;;;15.55;47.26;100655.59;4996601;28;1993;-55
2023/06/30 04:17:13;;;;;;;;;;;;;;;15.54;47.25;100655.88;4996757;28;1084;-55
2023/06/30 04:19:39;;;;;;;;;;;;;;;15.44;47.38;100655.84;4997026;28;1231;-55
2023/06/30 04:22:04;;;;;;;;;;;;;;;15.46;47.35;100653.66;4996617;28;1121;-55
2023/06/30 04:24:30;;;;;;;;;;;;;;;15.39;47.35;100652.00;4996586;28;1111;-54
2023/06/30 04:26:55;;;;;;;;;;;;;;;15.40;47.31;100650.91;4996495;28;1100;-55
2023/06/30 04:29:21;;;;;;;;;;;;;;;15.36;47.44;100658.03;4996961;28;1025;-55
2023/06/30 04:31:46;;;;;;;;;;;;;;;15.34;47.33;100651.97;4996287;28;1104;-55
2023/06/30 04:34:12;;;;;;;;;;;;;;;15.40;47.15;100653.66;4995133;28;1902;-55
2023/06/30 04:36:37;;;;;;;;;;;;;;;15.34;47.53;100660.19;4996497;28;1129;-55
2023/06/30 04:39:03;;;;;;;;;;;;;;;15.43;47.02;100660.53;4996331;28;1119;-51
2023/06/30 04:41:28;;;;;;;;;;;;;;;15.45;46.94;100669.28;4995545;28;1071;-54
2023/06/30 04:43:54;;;;;;;;;;;;;;;15.32;47.38;100662.38;5004213;28;1334;-53
2023/06/30 04:46:19;;;;;;;;;;;;;;;15.30;47.39;100664.56;4996413;28;1132;-54
2023/06/30 04:48:45;;;;;;;;;;;;;;;15.33;47.37;100665.94;4996018;28;1149;-53
2023/06/30 04:51:11;;;;;;;;;;;;;;;15.35;47.08;100670.06;4996477;28;1200;-54
2023/06/30 04:53:38;;;;;;;;;;;;;;;16.66;45.69;100670.84;4996152;28;1906;-53
2023/06/30 04:56:04;;;;;;;;;;;;;;;16.81;45.58;100664.47;5000608;28;1219;-53
2023/06/30 04:58:30;;;;;;;;;;;;;;;16.47;46.56;100667.00;5007692;28;1140;-54
2023/06/30 05:00:56;;;;;;;;;;;;;;;16.37;47.20;100670.59;4999581;28;1113;-54
2023/06/30 05:03:22;;;;;;;;;;;;;;;16.23;47.83;100673.06;4999612;28;1147;-53
2023/06/30 05:05:47;;;;;;;;;;;;;;;16.14;48.13;100674.69;4999205;28;1036;-52
2023/06/30 05:08:14;;;;;;;;;;;;;;;16.08;48.36;100671.09;4999709;28;1121;-54
2023/06/30 05:10:39;;;;;;;;;;;;;;;16.07;48.65;100673.03;4999431;28;1534;-52
2023/06/30 05:13:05;;;;;;;;;;;;;;;16.70;47.82;100682.06;4998983;28;1970;-53
2023/06/30 05:15:31;;;;;;;;;;;;;;;17.24;46.67;100681.41;4999264;28;1200;-51
2023/06/30 05:17:56;;;;;;;;;;;;;;;16.68;48.30;100687.84;4999031;28;1164;-53
2023/06/30 05:20:22;;;;;;;;;;;;;;;16.49;48.96;100686.75;4997779;28;1149;-55
2023/06/30 05:22:47;;;;;;;;;;;;;;;16.32;49.41;100678.81;4998602;28;1107;-55
2023/06/30 05:25:13;;;;;;;;;;;;;;;16.29;49.58;100676.63;4998917;28;1184;-55
2023/06/30 05:27:38;;;;;;;;;;;;;;;16.22;49.85;100683.19;4999256;28;1048;-55
2023/06/30 05:30:04;;;;;;;;;;;;;;;16.21;49.93;100686.19;4998982;28;1025;-54
2023/06/30 05:32:30;;;;;;;;;;;;;;;16.68;49.43;100689.78;4999358;28;1987;-55
2023/06/30 05:34:55;;;;;;;;;;;;;;;17.54;47.43;100678.81;5001014;28;1176;-55
2023/06/30 05:37:21;;;;;;;;;;;;;;;16.89;49.10;100685.91;4996041;28;1357;-55
2023/06/30 05:39:47;;;;;;;;;;;;;;;16.68;49.65;100687.03;4986171;28;1546;-54
2023/06/30 05:42:12;;;;;;;;;;;;;;;16.56;50.25;100688.13;4998610;28;1072;-54
2023/06/30 05:44:38;;;;;;;;;;;;;;;16.44;50.61;100690.34;4997357;28;1145;-49
2023/06/30 05:47:04;;;;;;;;;;;;;;;16.41;50.82;100693.59;4998321;28;1437;-52
2023/06/30 05:49:29;;;;;;;;;;;;;;;16.41;51.08;100688.13;4998238;28;1148;-56
2023/06/30 05:51:55;;;;;;;;;;;;;;;16.33;51.51;100686.75;4998573;28;1168;-56
2023/06/30 05:54:20;;;;;;;;;;;;;;;16.31;51.56;100697.16;4996878;28;1898;-55
2023/06/30 05:56:46;;;;;;;;;;;;;;;17.04;50.41;100687.81;4998554;28;1016;-56
2023/06/30 05:59:11;;;;;;;;;;;;;;;17.36;49.40;100689.34;4998326;28;1123;-55
2023/06/30 06:01:38;;;;;;;;;;;;;;;16.83;51.16;100688.91;4998631;28;1045;-57
2023/06/30 06:04:08;;;;;;;;;;;;;;;16.68;51.34;100690.59;4998337;28;1148;-55
2023/06/30 06:06:33;;;;;;;;;;;;;;;16.54;51.92;100690.31;4998013;28;1151;-57
2023/06/30 06:08:59;;;;;;;;;;;;;;;16.45;52.08;100680.16;4996611;28;1075;-56
2023/06/30 06:11:24;;;;;;;;;;;;;;;16.39;52.44;100685.66;4997484;28;1180;-56
2023/06/30 06:13:50;;;;;;;;;;;;;;;16.36;52.34;100683.47;4997755;28;1897;-56
2023/06/30 06:16:15;;;;;;;;;;;;;;;16.28;52.52;100686.75;4997607;28;1101;-57
2023/06/30 06:18:41;;;;;;;;;;;;;;;16.26;52.52;100683.47;4997831;28;1033;-56
2023/06/30 06:21:06;;;;;;;;;;;;;;;16.23;52.71;100684.84;4997366;28;1061;-56
2023/06/30 06:23:32;;;;;;;;;;;;;;;16.21;52.94;100683.44;5001877;28;1290;-56
2023/06/30 06:25:57;;;;;;;;;;;;;;;17.53;50.45;100689.00;4999984;28;1254;-55
2023/06/30 06:28:23;;;;;;;;;;;;;;;17.10;51.56;100681.19;4997614;28;1341;-55
2023/06/30 06:30:48;;;;;;;;;;;;;;;16.77;52.34;100682.59;4997460;28;988;-55
2023/06/30 06:33:14;;;;;;;;;;;;;;;16.60;52.86;100682.91;5028852;28;1902;-54
2023/06/30 06:35:39;;;;;;;;;;;;;;;16.57;53.10;100677.97;4996213;28;1306;-62
2023/06/30 06:38:05;;;;;;;;;;;;;;;16.45;53.35;100672.75;4997832;28;1243;-62
2023/06/30 06:40:30;;;;;;;;;;;;;;;16.41;53.15;100674.41;4997430;28;1329;-62
2023/06/30 06:42:56;;;;;;;;;;;;;;;16.41;53.11;100667.00;4997300;28;1283;-62
2023/06/30 06:45:26;;;;;;;;;;;;;;;16.34;53.34;100668.38;4996406;28;1113;-62
2023/06/30 06:48:10;;;;;;;;;;;;;;;16.38;53.42;100661.22;5001406;28;1063;-61
2023/06/30 06:50:35;;;;;;;;;;;;;;;16.25;53.77;100654.38;4996384;28;1219;-62
2023/06/30 06:53:01;;;;;;;;;;;;;;;16.29;53.43;100665.63;4996751;28;1973;-61
2023/06/30 06:55:26;;;;;;;;;;;;;;;16.27;53.50;100665.91;4996754;28;1056;-62
2023/06/30 06:57:53;;;;;;;;;;;;;;;17.41;51.71;100664.59;4996852;28;1309;-59
2023/06/30 07:00:18;;;;;;;;;;;;;;;17.14;52.41;100653.16;4996440;28;1067;-62
2023/06/30 07:02:44;;;;;;;;;;;;;;;16.79;53.33;100652.97;4996705;28;1350;-62
2023/06/30 07:05:10;;;;;;;;;;;;;;;16.65;53.83;100658.19;4996639;28;1064;-62
2023/06/30 07:07:35;;;;;;;;;;;;;;;16.54;53.94;100653.81;4995240;28;1224;-62
2023/06/30 07:10:01;;;;;;;;;;;;;;;16.52;53.85;100661.50;4996649;28;1021;-55
2023/06/30 07:12:27;;;;;;;;;;;;;;;16.50;53.61;100655.47;4996312;28;1032;-56
2023/06/30 07:14:52;;;;;;;;;;;;;;;16.41;53.95;100658.78;4996314;28;1993;-55
2023/06/30 07:17:18;;;;;;;;;;;;;;;16.39;53.83;100658.22;4997142;28;1164;-56
2023/06/30 07:19:43;;;;;;;;;;;;;;;16.39;53.77;100655.47;4996897;28;1144;-55
2023/06/30 07:22:09;;;;;;;;;;;;;;;16.34;53.84;100657.38;4997031;28;1021;-55
2023/06/30 07:24:34;;;;;;;;;;;;;;;16.37;53.57;100656.88;4997000;28;1040;-55
2023/06/30 07:27:00;;;;;;;;;;;;;;;16.34;53.70;100660.13;4997053;28;1095;-54
2023/06/30 07:29:25;;;;;;;;;;;;;;;16.67;53.74;100669.72;4996592;28;1037;-55
2023/06/30 07:31:50;;;;;;;;;;;;;;;17.38;52.52;100651.41;4997194;28;1215;-54
2023/06/30 07:34:19;;;;;;;;;;;;;;;16.86;53.63;100658.16;4996398;28;1910;-54
2023/06/30 07:36:45;;;;;;;;;;;;;;;16.68;54.16;100663.13;4996539;28;1068;-55
2023/06/30 07:39:11;;;;;;;;;;;;;;;16.58;54.00;100663.16;4996568;28;1017;-55
2023/06/30 07:41:36;;;;;;;;;;;;;;;16.53;54.02;100654.91;4996966;28;1148;-56
2023/06/30 07:44:02;;;;;;;;;;;;;;;16.51;54.29;100657.94;4996414;28;1113;-55
2023/06/30 07:46:27;;;;;;;;;;;;;;;16.47;54.29;100656.03;4997011;28;1091;-55
2023/06/30 07:48:53;;;;;;;;;;;;;;;16.45;54.07;100659.03;4995668;28;1040;-55
2023/06/30 07:51:18;;;;;;;;;;;;;;;16.39;54.26;100654.66;4996649;28;1098;-55
2023/06/30 07:53:44;;;;;;;;;;;;;;;16.38;54.08;100663.97;4996558;28;1984;-54
2023/06/30 07:56:10;;;;;;;;;;;;;;;16.38;54.02;100648.34;4996189;28;1072;-56
2023/06/30 07:58:35;;;;;;;;;;;;;;;16.34;54.05;100654.63;4996058;28;1045;-56
2023/06/30 08:01:01;;;;;;;;;;;;;;;16.33;54.04;100653.03;4995283;28;1580;-54
2023/06/30 08:03:26;;;;;;;;;;;;;;;16.30;54.03;100654.38;4996692;28;1048;-56
2023/06/30 08:05:52;;;;;;;;;;;;;;;16.30;53.98;100657.13;4996888;28;1048;-55
2023/06/30 08:08:17;;;;;;;;;;;;;;;16.71;53.73;100654.34;4996236;28;1194;-56
2023/06/30 08:10:43;;;;;;;;;;;;;;;17.50;52.60;100656.59;4996593;28;1176;-56
2023/06/30 08:13:08;;;;;;;;;;;;;;;16.93;54.13;100648.56;4999971;28;1963;-55
2023/06/30 08:15:34;;;;;;;;;;;;;;;16.75;54.29;100652.69;4995778;28;1270;-56
2023/06/30 08:17:59;;;;;;;;;;;;;;;16.67;54.35;100650.50;4995451;28;1147;-56
2023/06/30 08:20:25;;;;;;;;;;;;;;;16.60;54.58;100649.97;4996104;28;1298;-55
2023/06/30 08:22:50;;;;;;;;;;;;;;;16.53;54.42;100649.44;4995769;28;1259;-56
2023/06/30 08:25:16;;;;;;;;;;;;;;;16.46;54.69;100654.38;4995354;28;1137;-56
2023/06/30 08:27:41;;;;;;;;;;;;;;;16.43;54.57;100645.59;4995443;28;1176;-56
2023/06/30 08:30:07;;;;;;;;;;;;;;;16.40;54.43;100642.59;4992433;28;1269;-56
2023/06/30 08:32:32;;;;;;;;;;;;;;;16.44;54.51;100649.16;4998807;28;1060;-56
2023/06/30 08:34:58;;;;;;;;;;;;;;;16.46;54.14;100649.69;4999383;28;1971;-56
2023/06/30 08:37:23;;;;;;;;;;;;;;;16.39;54.38;100646.41;4999413;28;885;-56
2023/06/30 08:39:49;;;;;;;;;;;;;;;16.37;54.24;100637.66;4999548;28;1001;-56
2023/06/30 08:42:14;;;;;;;;;;;;;;;16.32;54.45;100643.94;4999735;28;982;-56
2023/06/30 08:44:43;;;;;;;;;;;;;;;16.31;54.12;100636.81;4999599;28;1111;-56
2023/06/30 08:47:09;;;;;;;;;;;;;;;16.44;54.49;100635.44;4998101;28;1090;-56
2023/06/30 08:49:34;;;;;;;;;;;;;;;17.72;52.57;100634.16;4997108;28;1137;-56
2023/06/30 08:52:00;;;;;;;;;;;;;;;17.10;53.88;100631.72;4994841;28;1357;-55
2023/06/30 08:54:27;;;;;;;;;;;;;;;16.84;54.77;100633.72;4999747;28;1918;-56
2023/06/30 08:56:53;;;;;;;;;;;;;;;16.73;54.54;100624.69;4990123;28;1514;-55
2023/06/30 08:59:19;;;;;;;;;;;;;;;16.66;54.66;100626.06;4997908;28;989;-54
2023/06/30 09:01:45;;;;;;;;;;;;;;;16.63;54.59;100627.44;4998700;28;1065;-54
2023/06/30 09:04:11;;;;;;;;;;;;;;;16.57;54.66;100623.06;4998640;28;1290;-56
2023/06/30 09:06:37;;;;;;;;;;;;;;;16.50;54.79;100617.06;4998484;28;1140;-55
2023/06/30 09:09:06;;;;;;;;;;;;;;;16.54;54.40;100618.16;4997978;28;1160;-56
2023/06/30 09:11:31;;;;;;;;;;;;;;;16.47;54.50;100617.59;4996842;28;1142;-56
2023/06/30 09:14:01;;;;;;;;;;;;;;;16.48;54.40;100611.00;4996608;28;1906;-56
2023/06/30 09:16:30;;;;;;;;;;;;;;;16.48;54.41;100613.75;4998874;28;1132;-55
2023/06/30 09:18:56;;;;;;;;;;;;;;;16.44;54.35;100616.25;4999246;28;1107;-54
2023/06/30 09:21:21;;;;;;;;;;;;;;;16.39;54.54;100614.28;4999220;28;1036;-55
2023/06/30 09:23:47;;;;;;;;;;;;;;;16.38;54.40;100618.16;4999187;28;1069;-58
2023/06/30 09:26:16;;;;;;;;;;;;;;;16.35;54.54;100621.44;4998866;28;1175;-55
2023/06/30 09:28:44;;;;;;;;;;;;;;;16.35;54.25;100610.47;4999192;28;997;-56
2023/06/30 09:31:10;;;;;;;;;;;;;;;16.31;54.46;100612.09;4998458;28;1195;-55
2023/06/30 09:33:35;;;;;;;;;;;;;;;16.36;54.30;100614.84;4998718;28;1977;-56
2023/06/30 09:36:02;;;;;;;;;;;;;;;16.31;54.54;100605.81;4998875;28;921;-56
2023/06/30 09:38:28;;;;;;;;;;;;;;;16.29;54.39;100606.09;4997236;28;975;-56
2023/06/30 09:40:54;;;;;;;;;;;;;;;16.31;54.25;100606.63;4998837;28;1132;-56
2023/06/30 09:43:20;;;;;;;;;;;;;;;16.36;54.51;100603.88;4998696;28;1224;-56
2023/06/30 09:45:46;;;;;;;;;;;;;;;17.57;53.38;100599.34;4998095;28;1073;-55
2023/06/30 09:48:12;;;;;;;;;;;;;;;17.05;54.52;100606.22;4998965;28;1045;-54
2023/06/30 09:50:37;;;;;;;;;;;;;;;16.84;54.84;100605.44;4998063;28;1107;-55
2023/06/30 09:53:03;;;;;;;;;;;;;;;16.71;54.98;100601.34;4998677;28;1980;-58
2023/06/30 09:55:28;;;;;;;;;;;;;;;16.63;54.92;100599.19;4997003;28;1114;-56
2023/06/30 09:57:57;;;;;;;;;;;;;;;16.62;54.71;100595.63;4998639;28;1117;-55
2023/06/30 10:00:25;;;;;;;;;;;;;;;16.56;55.06;100593.97;4992435;28;1145;-56
2023/06/30 10:03:18;;;;;;;;;;;;;;;16.57;54.90;100601.09;4997043;28;989;-55
2023/06/30 10:05:44;;;;;;;;;;;;;;;16.53;54.79;100595.34;4997275;28;1388;-55
2023/06/30 10:08:10;;;;;;;;;;;;;;;16.52;54.87;100598.38;4998398;28;1024;-55
2023/06/30 10:10:35;;;;;;;;;;;;;;;16.52;54.72;100581.91;4998147;28;1153;-55
2023/06/30 10:13:01;;;;;;;;;;;;;;;16.43;54.86;100584.38;4997692;28;1914;-53
2023/06/30 10:15:26;;;;;;;;;;;;;;;16.50;54.73;100592.34;4997780;28;1165;-54
2023/06/30 10:17:55;;;;;;;;;;;;;;;16.48;54.40;100583.56;4998238;28;1064;-55
2023/06/30 10:20:20;;;;;;;;;;;;;;;16.41;54.59;100590.16;5001043;28;1331;-53
2023/06/30 10:22:46;;;;;;;;;;;;;;;16.43;54.60;100584.38;4998154;28;1025;-54
2023/06/30 10:25:11;;;;;;;;;;;;;;;16.42;54.56;100580.84;4996403;28;1283;-57
2023/06/30 10:27:37;;;;;;;;;;;;;;;16.40;54.39;100583.03;4996944;28;1216;-57
2023/06/30 10:30:02;;;;;;;;;;;;;;;16.42;54.48;100580.84;4992778;28;1341;-58
2023/06/30 10:32:28;;;;;;;;;;;;;;;16.36;54.39;100581.13;4997177;28;1081;-58
2023/06/30 10:34:53;;;;;;;;;;;;;;;16.31;54.53;100576.44;4996596;28;1992;-59
2023/06/30 10:37:19;;;;;;;;;;;;;;;16.35;54.38;100572.03;4997381;28;1258;-57
2023/06/30 10:39:44;;;;;;;;;;;;;;;16.31;54.39;100568.22;4996247;28;1021;-56
2023/06/30 10:42:13;;;;;;;;;;;;;;;16.37;54.64;100575.34;4997251;28;1133;-55
2023/06/30 10:44:39;;;;;;;;;;;;;;;17.65;53.27;100564.94;4997092;28;1009;-55
2023/06/30 10:47:04;;;;;;;;;;;;;;;17.09;54.81;100572.38;5001620;28;1156;-52
2023/06/30 10:49:33;;;;;;;;;;;;;;;16.86;55.10;100568.34;4996114;28;1326;-54
2023/06/30 10:52:02;;;;;;;;;;;;;;;16.71;55.15;100579.38;4996939;28;1423;-58
2023/06/30 10:54:28;;;;;;;;;;;;;;;16.71;54.86;100568.41;4996962;28;1976;-54
2023/06/30 10:57:16;;;;;;;;;;;;;;;16.66;54.83;100572.00;5009509;28;1156;-55
2023/06/30 10:59:41;;;;;;;;;;;;;;;16.56;54.74;100566.53;4997098;28;1255;-54
2023/06/30 11:02:14;;;;;;;;;;;;;;;16.53;54.77;100553.34;4996737;28;874;-56
2023/06/30 11:04:40;;;;;;;;;;;;;;;16.60;54.36;100559.38;4996806;28;1298;-56
2023/06/30 11:07:07;;;;;;;;;;;;;;;16.49;54.75;100557.75;4997527;28;1337;-54
2023/06/30 11:10:02;;;;;;;;;;;;;;;16.54;54.23;100557.75;4996659;28;1036;-55
2023/06/30 11:12:28;;;;;;;;;;;;;;;16.52;54.45;100551.69;4987693;28;1247;-55
2023/06/30 11:14:54;;;;;;;;;;;;;;;16.47;54.45;100551.75;4995778;28;1930;-55
2023/06/30 11:17:20;;;;;;;;;;;;;;;16.43;54.58;100540.47;4996790;28;1063;-54
2023/06/30 11:19:57;;;;;;;;;;;;;;;16.47;54.79;100543.50;4996933;28;1168;-53
2023/06/30 11:22:31;;;;;;;;;;;;;;;16.46;54.67;100545.41;4997896;28;1263;-55
2023/06/30 11:24:57;;;;;;;;;;;;;;;16.39;54.72;100537.47;4996368;28;1439;-48
2023/06/30 11:27:23;;;;;;;;;;;;;;;16.36;54.93;100542.69;4995968;28;1144;-51
2023/06/30 11:29:49;;;;;;;;;;;;;;;16.37;54.68;100542.41;4995694;28;1454;-55
2023/06/30 11:32:27;;;;;;;;;;;;;;;16.33;54.58;100532.28;4995991;28;1349;-53
2023/06/30 11:34:53;;;;;;;;;;;;;;;16.31;54.83;100537.22;4999562;28;1914;-51
2023/06/30 11:37:18;;;;;;;;;;;;;;;16.35;54.67;100535.56;5007854;28;1330;-50
2023/06/30 11:43:22;;;;;;;;;;;;;;;18.09;53.28;100536.53;5001498;28;1194;-53
2023/06/30 11:45:57;;;;;;;;;;;;;;;17.07;54.32;100533.41;5015025;28;1276;-48
2023/06/30 11:51:53;;;;;;;;;;;;;;;18.26;53.42;100538.03;4989555;28;970;-50
2023/06/30 11:54:18;;;;;;;;;;;;;;;17.55;53.19;100532.03;4996117;28;1910;-63
2023/06/30 11:56:44;;;;;;;;;;;;;;;17.30;52.30;100536.56;4996359;28;1111;-57
2023/06/30 11:59:09;;;;;;;;;;;;;;;17.21;51.03;100533.59;4995764;28;1262;-63
2023/06/30 12:01:35;;;;;;;;;;;;;;;17.12;50.54;100524.31;4992148;28;1559;-63
2023/06/30 12:04:08;;;;;;;;;;;;;;;16.99;50.03;100522.19;4994752;28;1148;-63
2023/06/30 12:06:35;;;;;;;;;;;;;;;16.99;49.67;100524.94;4999303;28;1455;-63
2023/06/30 12:09:01;;;;;;;;;;;;;;;16.91;49.27;100524.44;5033259;28;1380;-63
2023/06/30 12:11:28;;;;;;;;;;;;;;;16.93;48.85;100515.91;5006224;28;1415;-63
2023/06/30 12:13:53;;;;;;;;;;;;;;;16.82;48.67;100504.09;4999670;28;1906;-63
2023/06/30 12:16:19;;;;;;;;;;;;;;;16.83;48.63;100507.66;5000064;28;1430;-59
2023/06/30 12:18:44;;;;;;;;;;;;;;;16.83;48.17;100499.44;4999371;28;1431;-63
2023/06/30 12:21:11;;;;;;;;;;;;;;;16.83;48.39;100507.66;5011195;28;1404;-63
2023/06/30 12:23:43;;;;;;;;;;;;;;;16.84;48.38;100490.91;5000617;28;1459;-61
2023/06/30 12:26:12;;;;;;;;;;;;;;;16.86;48.13;100501.63;4999705;28;1101;-54
2023/06/30 12:28:38;;;;;;;;;;;;;;;16.76;48.13;100495.06;5000242;28;1124;-53
2023/06/30 12:31:03;;;;;;;;;;;;;;;16.74;48.16;100486.28;5000228;28;1093;-53
2023/06/30 12:33:29;;;;;;;;;;;;;;;16.78;47.71;100486.56;4998281;28;1906;-53
2023/06/30 12:35:54;;;;;;;;;;;;;;;16.73;47.85;100484.66;4998347;28;1212;-53
2023/06/30 12:38:20;;;;;;;;;;;;;;;16.75;48.13;100487.13;5004275;28;1153;-54
2023/06/30 12:40:45;;;;;;;;;;;;;;;16.81;47.75;100475.00;5000244;28;1164;-52
2023/06/30 12:43:11;;;;;;;;;;;;;;;16.71;47.66;100470.38;5005577;28;1163;-52
2023/06/30 12:45:36;;;;;;;;;;;;;;;16.75;47.79;100473.41;5007101;28;1218;-50
2023/06/30 12:48:02;;;;;;;;;;;;;;;16.74;47.42;100472.56;4998860;28;1053;-54
2023/06/30 12:50:27;;;;;;;;;;;;;;;16.72;47.66;100465.72;5005518;28;1253;-53